Terminal Aerodrome Forecast
Issued by NWS Central Illinois

Home | Current Version | Previous Version | Text Only | Print | Product List | Glossary On
Versions: 1 2 3 4 5 6 7 8 9 10 11 12 13 14 15 16 17 18 19 20 21 22 23 24 25 26 27 28 29 30 31 32
943
FTUS43 KILX 232338
TAFPIA
TAF
KPIA 232338Z 2400/2424 09011KT P6SM VCSH BKN025
     FM240600 11008KT P6SM VCSH BKN030 WS020/17035KT
     FM241100 18010KT P6SM BKN025
     FM241800 23014G25KT P6SM SCT015
     FM241900 23014G26KT P6SM BKN020=

USA.gov is the U.S. government's official web portal to all federal, state and local government web resources and services.